Agua Caliente Hot Springs, CA

9:16 PM PDT on May 28, 2015 (GMT -0700)
Pinezanita RV Park & Campgrounds | | Change Station
CLOSE
Current Station
Personal Weather Station
Location: Julian, CA
Elevation: 4698 ft
Nearby Weather Stations

Elev 4698 ft 33.04 °N, 116.56 °W | Updated 9 seconds ago

Clear
Clear
55.2 °F
Feels Like 55.2 °F
N
0.0
Wind Variable Wind from West
Gusts 0.0 mph

Today
High -- | Low -- °F
--% Chance of Precip.
Yesterday
High -- | Low -- °F
Precip. -- in
5:39 AM 7:47 PM
Waxing Gibbous, 81% visible
Pressure 29.88 in
Visibility -9999.0 miles
Clouds
Dew Point 48 °F
Humidity 75%
Rainfall 0.00 in
Snow Depth Not available.
UV Not available.
Pollen 5.10 out of 12
Air Quality Not available.
Flu Activity Sporadic
METAR KCZZ 290352Z AUTO 19004KT 17/12 A2996 RMK AO1 SLP117 T01670117

More Conditions Fewer Conditions

Pressure 29.88 in
Visibility -9999.0 miles
Clouds
Dew Point 48 °F
Humidity 75%
Rainfall 0.00 in
Snow Depth Not available.
UV Not available.
Pollen 5.10 out of 12
Air Quality Not available.
Flu Activity Sporadic
METAR KCZZ 290352Z AUTO 19004KT 17/12 A2996 RMK AO1 SLP117 T01670117

More Conditions Fewer Conditions

10-Day Weather Forecast

Almanac

Astronomy

May. 28, 2015 Rise Set
Actual Time
Civil Twilight
Nautical Twilight
Astronomical Twilight
Moon
Length of Visible Light
Length of Day
Tomorrow will be .
, % of the Moon is Illuminated

Today's Extremes

State Highs State Lows

Community

WunderPhotos

Upload Photos

1,825,188 photos uploaded!

WunderBlogs® & News

Nearby

Air Quality

  Air Quality AQ Index Pollutant
Not available.

Snow Depth

Station Depth Elevation

Earthquake Activity

City Distance Mag. Time & Date
Minimum magnitude displayed is 2.5.

Coastal Water Temperatures

Place Temperature

Stations

Nearby Weather Stations

Station Location Temp. Windchill Dew Point Humidity Wind Precip. Elev Updated Type